Kansas City, Missouri
Traffic Map
Current Weather Conditions
Kansas City, Missouri
Overcast
Overcast
13°
Feels Like: 13°
Wind Chill: 13° Ceiling: 8000
Heat Index: 13° Visibility: 10mi
Dew Point: 12° Wind: 0mph
Humidity: 90% Direction: ° ()
Pressure: 29.79in Gusts: 0mph
Raw Report DataKMKC 240154Z 00000KT 10SM OVC080 13/12 A2979 RMK AO2 SLP085 T01330117
Traffic Incident Summary
Active as of:
Severity:
Category:
InformationThere was an issue retrieving the traffic information for this location. Please try a different location or try again shortly.
Advertisements
Track Severe Weather on mobile